Tiempo atmosférico en la estación meteorológica de Olite/Erriberri, Navarra (390 m.)



Fecha
DESCASC
Temp. máxima en grados centígrados (hora)
DESCASC
Temp. mínima en grados centígrados (hora)
DESCASC
Temp. media en grados centígrados
DESCASC
Racha de viento máxima en m/sg (hora)
DESCASC
Velocidad máxima media en intervalos de 10 minutos(hora)
DESCASC
Precipitaciones diarias en mm
DESCASC
Precipitaciones de 00:00 a 06:00 en mm
DESCASC
Precipitaciones de 06:00 a 12:00 en mm
DESCASC
Precipitaciones de 12:00 a 18:00 en mm
DESCASC
Precipitaciones de 18:00 a 24:00 en mm
DESCASC
23-06-2019 34.1 (17:10) 19.9 (07:00) 27 10.28 (17:50) 6.11 (11:50) 0 0 0 0 0
22-06-2019 30.1 (18:40) 8.6 (06:40) 19.4 7.78 (00:30) 4.44 (01:00) 0 0 0 0 0
21-06-2019 20.8 (17:00) 13.6 (23:59) 17.2 12.5 (18:10) 6.39 (01:20) 0.2 0.2 0 0 0
20-06-2019 22.5 (13:40) 15.2 (00:00) 18.8 12.5 (19:30) 7.22 (19:30) 1 0 0 0 1
19-06-2019 -- (--) -- (--) -- -- (--) -- (--) -- -- -- -- 0
18-06-2019 34.1 (17:10) 18.4 (00:00) 26.2 13.89 (11:10) 7.78 (11:50) 0 0 0 0 0
17-06-2019 31.9 (17:40) 13 (00:00) 22.4 7.22 (15:30) 4.17 (17:00) 0 0 0 0 0
16-06-2019 28.9 (17:40) 9.1 (00:00) 19 7.78 (14:30) 3.89 (00:50) 0 0 0 0 0
15-06-2019 21.8 (16:50) 11.7 (00:00) 16.7 10.83 (16:30) 5 (10:20) 0 0 0 0 0
14-06-2019 26.9 (18:50) 11.8 (00:00) 19.3 10.83 (22:00) 5.83 (23:00) 0 0 0 0 0
13-06-2019 26.4 (17:50) 8 (00:00) 17.2 13.61 (20:50) 8.06 (19:50) 0 0 0 0 0
12-06-2019 21.4 (18:20) 4.4 (00:00) 12.9 8.61 (15:10) 4.17 (21:20) 0 0 0 0 0
11-06-2019 16.8 (16:00) 8.2 (00:00) 12.5 14.44 (15:40) 8.61 (13:30) 1.8 1.8 0 0 0
10-06-2019 17.4 (15:30) 11.4 (00:00) 14.4 12.22 (01:20) 7.22 (16:50) 0 0 0 0 0
09-06-2019 26.2 (16:40) 13.3 (00:00) 19.8 15.83 (20:40) 8.89 (20:40) 0.4 0 0 0 0.4
08-06-2019 24.8 (18:00) 7.4 (00:00) 16.1 9.72 (14:20) 5 (14:20) 0 0 0 0 0
07-06-2019 21.5 (17:40) 11.8 (00:00) 16.7 16.11 (02:20) 9.17 (00:50) 0 0 0 0 0
06-06-2019 24.9 (18:30) 9.2 (00:00) 17 16.11 (23:59) 9.17 (20:40) 0 0 0 0 0
05-06-2019 16.9 (17:10) 10.8 (00:00) 13.8 11.67 (08:30) 6.67 (08:30) 16.4 6.2 10.2 0 0
04-06-2019 30.7 (15:00) 13.3 (00:00) 22 18.33 (18:30) 9.72 (18:40) 0 0 0 0 0
03-06-2019 31 (18:50) 15.8 (00:00) 23.4 8.33 (23:50) 4.44 (19:50) 0 0 0 0 0
02-06-2019 31.5 (17:10) 13.1 (00:00) 22.3 8.06 (12:40) 5.28 (11:30) 0 0 0 0 0
01-06-2019 30.7 (19:30) 11.1 (00:00) 20.9 7.5 (12:10) 4.72 (12:10) 0 0 0 0 0
31-05-2019 28.8 (19:30) 10.4 (00:00) 19.6 9.72 (00:30) 5 (02:40) 0 0 0 0 0
30-05-2019 26.6 (16:30) 9.6 (00:00) 18.1 10.83 (22:10) 6.11 (03:50) 0 0 0 0 0
29-05-2019 18.2 (17:20) 10.1 (00:00) 14.2 12.78 (18:30) 6.94 (17:50) 0 0 0 0 0
28-05-2019 16.9 (14:00) 9.7 (00:00) 13.3 12.22 (14:00) 6.94 (12:20) 0 0 0 0 0

Gráficas

Temp. máximas Temp. mínimas Temp. medias Precipitaciones Rachas de viento máximas Velocidades máximas media en intervalos de 10 minutos

Datos horarios

Fecha y hora oficial Temperatura (ºC) Velocidad del viento (km/h) Dirección del viento Racha (km/h) Dirección de racha Precipitación (mm) Presión (hPa) Tendencia (hPa) Humedad (%)
2019-06-26 23:00:00 30.3 18 Sudeste 34 Sudeste 0 -- -- 20
2019-06-26 22:00:00 31.4 18 Sudeste 49 Sudeste 0 -- -- 19
2019-06-26 21:00:00 33 25 Sudeste 41 Sudeste 0 -- -- 17
2019-06-26 20:00:00 34.2 26 Sudeste 50 Sudeste 0 -- -- 15
2019-06-26 19:00:00 35.6 30 Sudeste 52 Sudeste 0 -- -- 14
2019-06-26 18:00:00 36.2 29 Sudeste 53 Sudeste 0 -- -- 13
2019-06-26 17:00:00 35.6 30 Sudeste 52 Sudeste 0 -- -- 16
2019-06-26 16:00:00 35.1 28 Sudeste 47 Sudeste 0 -- -- 15
2019-06-26 15:00:00 34.5 27 Sudeste 47 Sudeste 0 -- -- 16
2019-06-26 14:00:00 33.6 30 Sudeste 53 Sudeste 0 -- -- 16
2019-06-26 13:00:00 32.8 31 Sudeste 46 Sur 0 -- -- 16
2019-06-26 12:00:00 30.2 13 Sur 23 Sur 0 -- -- 28
2019-06-26 11:00:00 27.8 11 Sur 21 Sur 0 -- -- 40
2019-06-26 10:00:00 25 7 Sudeste 16 Sudeste 0 -- -- 52
2019-06-26 09:00:00 23.2 3 Sur 10 Sudeste 0 -- -- 59
2019-06-26 08:00:00 21 4 Sur 9 Sudeste 0 -- -- 67
2019-06-26 07:00:00 18.6 4 Este 6 Este 0 -- -- 73
2019-06-26 06:00:00 20.3 4 Este 22 Este 0 -- -- 66
2019-06-26 05:00:00 21.5 14 Sudeste 29 Sudeste 0 -- -- 62
2019-06-26 04:00:00 22.6 12 Sudeste 26 Sudeste 0 -- -- 57
2019-06-26 03:00:00 23.3 13 Sudeste 26 Sudeste 0 -- -- 54
2019-06-26 02:00:00 25 16 Sudeste 28 Sudeste 0 -- -- 46
2019-06-26 01:00:00 26.7 14 Sudeste 39 Sudeste 0 -- -- 41
2019-06-26 00:00:00 28.7 19 Sudeste 33 Sudeste 0 -- -- 36
2019-06-25 23:00:00 25.4 3 Sudeste 9 Sur 0 -- -- 45
2019-06-25 22:00:00 29 4 Este 22 Sudeste 0 -- -- 32
2019-06-25 21:00:00 31.8 13 Sudeste 31 Sudeste 0 -- -- 23
2019-06-25 20:00:00 33.4 18 Sudeste 31 Sudeste 0 -- -- 22
2019-06-25 19:00:00 34.1 16 Sudeste 32 Sudeste 0 -- -- 22
2019-06-25 18:00:00 34.4 16 Sudeste 31 Este 0 -- -- 21
2019-06-25 17:00:00 33 16 Sudeste 32 Sudeste 0 -- -- 25
2019-06-25 16:00:00 32.3 19 Sudeste 31 Sudeste 0 -- -- 25
2019-06-25 15:00:00 31.9 15 Sudeste 33 Sudeste 0 -- -- 26
2019-06-25 14:00:00 30.2 16 Sudeste 30 Sudeste 0 -- -- 28
2019-06-25 13:00:00 28.7 10 Sur 20 Sur 0 -- -- 32
2019-06-25 12:00:00 27 8 Sur 17 Sur 0 -- -- 35
2019-06-25 11:00:00 24.8 5 Sur 10 Sudeste 0 -- -- 40
2019-06-25 10:00:00 22.4 3 Sur 8 Sur 0 -- -- 47
2019-06-25 09:00:00 20.5 0 Calma 6 Sur 0 -- -- 58
2019-06-25 08:00:00 18.7 0 Calma 6 Sudeste 0 -- -- 67
2019-06-25 07:00:00 18.5 3 Noroeste 5 Noroeste 0 -- -- 70
2019-06-25 06:00:00 18.7 4 Noroeste 6 Noroeste 0 -- -- 68
2019-06-25 05:00:00 18.6 4 Norte 9 Noroeste 0 -- -- 69
2019-06-25 04:00:00 19.4 7 Noroeste 13 Oeste 0 -- -- 62
2019-06-25 03:00:00 19.8 0 Calma 10 Oeste 0 -- -- 57
2019-06-25 02:00:00 21.5 4 Noroeste 15 Noroeste 0 -- -- 50
2019-06-25 01:00:00 23.7 3 Noroeste 13 Noroeste 0 -- -- 31
2019-06-25 00:00:00 24.1 7 Sudeste 19 Sudeste 0 -- -- 29
2019-06-24 23:00:00 27 11 Sudeste 19 Sudeste 0 -- -- 20
2019-06-24 22:00:00 28.2 8 Sudeste 27 Sudeste 0 -- -- 20
2019-06-24 21:00:00 30.1 18 Sudeste 33 Sudeste 0 -- -- 16
2019-06-24 20:00:00 31.4 20 Sudeste 37 Sudeste 0 -- -- 15
2019-06-24 19:00:00 32.4 21 Sudeste 33 Sudeste 0 -- -- 14
2019-06-24 18:00:00 31.6 19 Sudeste 39 Sudeste 0 -- -- 14
2019-06-24 17:00:00 32.3 21 Sudeste 40 Sudeste 0 -- -- 14
2019-06-24 16:00:00 30.2 17 Sudeste 35 Sudeste 0 -- -- 17
2019-06-24 15:00:00 29.1 19 Sudeste 35 Sudeste 0 -- -- 19
2019-06-24 14:00:00 29.3 20 Sudeste 40 Sudeste 0 -- -- 17
2019-06-24 13:00:00 29.8 26 Sudeste 41 Sudeste 0 -- -- 17
2019-06-24 12:00:00 28.3 17 Sudeste 36 Sudeste 0 -- -- 20
2019-06-24 11:00:00 26.9 21 Sudeste 36 Sudeste 0 -- -- 22
2019-06-24 10:00:00 25.5 15 Sudeste 25 Sudeste 0 -- -- 27
2019-06-24 09:00:00 23.4 12 Sudeste 21 Sudeste 0 -- -- 31
2019-06-24 08:00:00 21.8 9 Sudeste 17 Sudeste 0 -- -- 35
2019-06-24 07:00:00 21.4 9 Sudeste 14 Sudeste 0 -- -- 34
2019-06-24 06:00:00 20.8 6 Sudeste 16 Sudeste 0 -- -- 36
2019-06-24 05:00:00 22 7 Sudeste 14 Sur 0 -- -- 31
2019-06-24 04:00:00 22.8 9 Sudeste 16 Sudeste 0 -- -- 29
2019-06-24 03:00:00 23 3 Sur 15 Sur 0 -- -- 33
2019-06-24 02:00:00 23.4 6 Sur 12 Sur 0 -- -- 34
2019-06-24 01:00:00 24.2 2 Sudoeste 13 Sudeste 0 -- -- 38
2019-06-24 00:00:00 26.5 8 Sudeste 23 Sudeste 0 -- -- 29
2019-06-23 23:00:00 26 5 Sur 14 Sudeste 0 -- -- 36
2019-06-23 22:00:00 28.6 5 Sudeste 12 Sudeste 0 -- -- 29
2019-06-23 21:00:00 30.8 9 Sudeste 21 Este 0 -- -- 23
2019-06-23 20:00:00 32.5 12 Sudeste 27 Sudeste 0 -- -- 20
2019-06-23 19:00:00 33.3 13 Sudeste 33 Sudeste 0 -- -- 18
2019-06-23 18:00:00 33.9 17 Sudeste 37 Sudeste 0 -- -- 16
2019-06-23 17:00:00 33.9 15 Sudeste 31 Sudeste 0 -- -- 17
2019-06-23 16:00:00 32.4 18 Sudeste 36 Sudeste 0 -- -- 20
2019-06-23 15:00:00 32.3 17 Sudeste 35 Sudeste 0 -- -- 20
2019-06-23 14:00:00 31.5 16 Sudeste 33 Sudeste 0 -- -- 25
2019-06-23 13:00:00 29.7 15 Sudeste 36 Sur 0 -- -- 29
2019-06-23 12:00:00 28.5 19 Sudeste 35 Sudeste 0 -- -- 31
2019-06-23 11:00:00 27.1 21 Sudeste 35 Sudeste 0 -- -- 35
2019-06-23 10:00:00 25.1 20 Sudeste 32 Sudeste 0 -- -- 40
2019-06-23 09:00:00 21.8 12 Sudeste 22 Sudeste 0 -- -- 50
2019-06-23 08:00:00 20.3 6 Sur 14 Sudeste 0 -- -- 56
2019-06-23 07:00:00 19.9 8 Sur 22 Sur 0 -- -- 57
2019-06-23 06:00:00 20.4 11 Sudeste 24 Sudeste 0 -- -- 55
2019-06-23 05:00:00 20.7 11 Sur 21 Sur 0 -- -- 53
2019-06-23 04:00:00 21.1 10 Sur 23 Sudeste 0 -- -- 47
2019-06-23 03:00:00 21.5 6 Sudeste 13 Sudeste 0 -- -- 44
2019-06-23 02:00:00 22.5 8 Sudeste 18 Este 0 -- -- 40
2019-06-23 01:00:00 22.9 8 Sudeste 22 Sudeste 0 -- -- 39
2019-06-23 00:00:00 20.2 3 Sudeste 9 Sudeste 0 -- -- 46
2019-06-22 23:00:00 21.5 4 Sudeste 6 Sudeste 0 -- -- 47
2019-06-22 22:00:00 24.3 2 Este 4 Este 0 -- -- 40
2019-06-22 21:00:00 27.6 4 Sudeste 13 Sudeste 0 -- -- 32
2019-06-22 20:00:00 29.2 5 Sur 16 Sur 0 -- -- 24
2019-06-22 19:00:00 29.9 7 Sur 18 Sur 0 -- -- 23
2019-06-22 18:00:00 29.7 5 Sur 15 Sur 0 -- -- 26
2019-06-22 17:00:00 29.4 8 Sudeste 17 Este 0 -- -- 23
2019-06-22 16:00:00 28.3 8 Sudeste 21 Sudeste 0 -- -- 27
2019-06-22 15:00:00 27 8 Sudeste 19 Sudeste 0 -- -- 29
2019-06-22 14:00:00 25.5 8 Sudeste 19 Sudeste 0 -- -- 31
2019-06-22 13:00:00 24 8 Sur 18 Sur 0 -- -- 31
2019-06-22 12:00:00 21.5 7 Sudeste 14 Sudeste 0 -- -- 44
2019-06-22 11:00:00 19.3 5 Sudeste 15 Sudeste 0 -- -- 49
2019-06-22 10:00:00 17.9 5 Sur 11 Noroeste 0 -- -- 52
2019-06-22 09:00:00 15.6 8 Noroeste 13 Noroeste 0 -- -- 57
2019-06-22 08:00:00 12.5 6 Noroeste 11 Noroeste 0 -- -- 70
2019-06-22 07:00:00 8.9 4 Noroeste 7 Noroeste 0 -- -- 86
2019-06-22 06:00:00 9.7 7 Noroeste 16 Noroeste 0 -- -- 81
2019-06-22 05:00:00 10.1 8 Noroeste 17 Noroeste 0 -- -- 82
2019-06-22 04:00:00 11.3 9 Noroeste 18 Noroeste 0 -- -- 76
2019-06-22 03:00:00 11.6 6 Noroeste 19 Noroeste 0 -- -- 75
2019-06-22 02:00:00 12.5 10 Noroeste 22 Noroeste 0 -- -- 70
2019-06-22 01:00:00 13.1 16 Noroeste 28 Noroeste 0 -- -- 67
2019-06-22 00:00:00 13.6 18 Noroeste 33 Noroeste 0 -- -- 64
2019-06-21 23:00:00 14.5 22 Noroeste 34 Noroeste 0 -- -- 61
2019-06-21 22:00:00 15.7 19 Noroeste 37 Noroeste 0 -- -- 57
2019-06-21 21:00:00 17.5 17 Noroeste 34 Norte 0 -- -- 51
2019-06-21 20:00:00 19.1 17 Noroeste 37 Noroeste 0 -- -- 47
2019-06-21 19:00:00 19.7 17 Norte 45 Noroeste 0 -- -- 46
2019-06-21 18:00:00 20.1 21 Noroeste 40 Noroeste 0 -- -- 45
2019-06-21 17:00:00 20.8 19 Noroeste 39 Noroeste 0 -- -- 44
2019-06-21 16:00:00 20.3 19 Norte 34 Norte 0 -- -- 47
2019-06-21 15:00:00 19.9 17 Norte 41 Norte 0 -- -- 47
2019-06-21 14:00:00 20.4 19 Norte 38 Noroeste 0 -- -- 44
2019-06-21 13:00:00 19.3 20 Norte 37 Norte 0 -- -- 50
2019-06-21 12:00:00 19.3 19 Noroeste 36 Noroeste 0 -- -- 53
2019-06-21 11:00:00 18.9 16 Noroeste 31 Norte 0 -- -- 53
2019-06-21 10:00:00 16.5 20 Norte 37 Noroeste 0 -- -- 66
2019-06-21 09:00:00 15.8 15 Noroeste 27 Noroeste 0 -- -- 68
2019-06-21 08:00:00 14.9 14 Noroeste 28 Noroeste 0 -- -- 74
2019-06-21 07:00:00 13.8 8 Norte 29 Noroeste 0 -- -- 79
2019-06-21 06:00:00 14 17 Noroeste 28 Noroeste 0 -- -- 80
2019-06-21 05:00:00 14.7 15 Noroeste 30 Norte 0 -- -- 75
2019-06-21 04:00:00 14.9 11 Norte 31 Noroeste 0 -- -- 76
2019-06-21 03:00:00 15.1 16 Noroeste 26 Noroeste 0 -- -- 77
2019-06-21 02:00:00 15.2 12 Noroeste 38 Noroeste 0.2 -- -- 77
2019-06-21 01:00:00 15.1 18 Noroeste 28 Noroeste 0 -- -- 79
2019-06-21 00:00:00 15.4 5 Oeste 28 Norte 0 -- -- 77
2019-06-20 23:00:00 15.2 14 Norte 37 Noroeste 0.2 -- -- 78
2019-06-20 22:00:00 15.7 23 Noroeste 40 Noroeste 0.2 -- -- 76
2019-06-20 21:00:00 16.2 13 Norte 34 Norte 0 -- -- 73
2019-06-20 20:00:00 16.3 19 Norte 45 Noroeste 0.6 -- -- 76
2019-06-20 19:00:00 19.1 19 Noroeste 38 Noroeste 0 -- -- 57
2019-06-20 18:00:00 20.2 19 Norte 43 Norte 0 -- -- 55
2019-06-20 17:00:00 19.5 18 Norte 36 Norte 0 -- -- 56
2019-06-20 16:00:00 21.1 17 Norte 32 Noroeste 0 -- -- 51
2019-06-20 15:00:00 21.9 17 Noroeste 32 Noroeste 0 -- -- 49
2019-06-20 14:00:00 22.3 17 Norte 30 Noroeste 0 -- -- 48
2019-06-20 13:00:00 22 16 Noroeste 31 Noroeste 0 -- -- 47
2019-06-20 12:00:00 20.9 14 Noroeste 27 Noroeste 0 -- -- 53
2019-06-20 11:00:00 19.6 13 Norte 24 Noroeste 0 -- -- 57
2019-06-20 10:00:00 18.6 13 Noroeste 27 Noroeste 0 -- -- 60
2019-06-20 09:00:00 17.8 13 Noroeste 31 Noroeste 0 -- -- 64
2019-06-20 08:00:00 17 17 Noroeste 32 Noroeste 0 -- -- 66
2019-06-20 07:00:00 16.2 14 Noroeste 26 Noroeste 0 -- -- 69
2019-06-20 06:00:00 16.2 10 Noroeste 19 Noroeste 0 -- -- 66
2019-06-20 05:00:00 15.9 9 Noroeste 26 Noroeste 0 -- -- 68
2019-06-20 04:00:00 15.7 14 Noroeste 23 Norte 0 -- -- 69
2019-06-20 03:00:00 15.8 10 Norte 23 Norte 0 -- -- 68
2019-06-20 02:00:00 16.1 12 Norte 29 Noroeste 0 -- -- 66
2019-06-20 01:00:00 17.1 17 Noroeste 34 Noroeste 0 -- -- 61
2019-06-20 00:00:00 18.5 16 Noroeste 25 Noroeste 0 -- -- 59
2019-06-19 23:00:00 19.1 12 Norte 32 Norte 0 -- -- 58
2019-06-19 22:00:00 21.3 14 Norte 32 Norte 0 -- -- 53
2019-06-19 21:00:00 24.7 12 Norte 24 Norte 0 -- -- 43
2019-06-19 20:00:00 27.6 10 Norte 20 Norte 0 -- -- 26
2019-06-19 19:00:00 27.7 7 Norte 16 Nordeste 0 -- -- 24
2019-06-19 18:00:00 27.4 8 Norte 18 Noroeste 0 -- -- 27
2019-06-19 17:00:00 27.6 5 Este 14 Noroeste 0 -- -- 28
2019-06-19 16:00:00 27.1 4 Nordeste 14 Sudeste 0 -- -- 28
2019-06-19 15:00:00 26.9 4 Oeste -- -- -- -- -- 27
2019-06-19 14:00:00 -- -- -- -- -- -- -- -- --
2019-06-19 13:00:00 25.8 9 Sudeste -- -- -- -- -- 23
2019-06-19 12:00:00 -- -- -- -- -- -- -- -- --
2019-06-19 11:00:00 -- -- -- -- -- -- -- -- --
2019-06-19 10:00:00 -- -- -- -- -- -- -- -- --
2019-06-19 09:00:00 -- -- -- -- -- -- -- -- --
2019-06-19 08:00:00 -- -- -- -- -- -- -- -- --
2019-06-19 07:00:00 -- -- -- -- -- -- -- -- --
2019-06-19 06:00:00 -- -- -- -- -- -- -- -- --
2019-06-19 05:00:00 -- -- -- -- -- -- -- -- --
2019-06-19 04:00:00 15.8 4 Noroeste 9 Noroeste 0 -- -- 53
2019-06-19 03:00:00 16.9 0 Calma 9 Sudeste 0 -- -- 52
2019-06-19 02:00:00 20.7 6 Sur 12 Sur 0 -- -- 36
2019-06-19 01:00:00 21.4 0 Calma 15 Oeste 0 -- -- 37
2019-06-19 00:00:00 24.5 5 Oeste 15 Sudeste 0 -- -- 24
2019-06-18 23:00:00 26.9 7 Sudoeste 22 Sudoeste 0 -- -- 15
2019-06-18 22:00:00 28.3 6 Sudoeste 19 Sudoeste 0 -- -- 8
2019-06-18 21:00:00 30.9 8 Sudoeste 28 Sudoeste 0 -- -- 5
2019-06-18 20:00:00 32.7 15 Sudoeste 33 Sur 0 -- -- 3
2019-06-18 19:00:00 33.6 12 Sur 36 Sur 0 -- -- 4
2019-06-18 18:00:00 34 13 Sur 38 Sur 0 -- -- 5
2019-06-18 17:00:00 34 17 Sur 42 Sur 0 -- -- 6
2019-06-18 16:00:00 32.9 20 Sur 41 Sudeste 0 -- -- 12
2019-06-18 15:00:00 32.2 20 Sudeste 41 Sudeste 0 -- -- 12
2019-06-18 14:00:00 29.2 17 Sudeste 39 Sudeste 0 -- -- 18
2019-06-18 13:00:00 29.4 19 Sudeste 39 Sudeste 0 -- -- 18
2019-06-18 12:00:00 27.5 26 Sudeste 50 Sudeste 0 -- -- 21
2019-06-18 11:00:00 25.8 24 Sudeste 42 Sudeste 0 -- -- 22
2019-06-18 10:00:00 24 19 Sudeste 30 Sudeste 0 -- -- 24
2019-06-18 09:00:00 23.4 10 Sur 19 Sudeste 0 -- -- 29
2019-06-18 08:00:00 21.1 13 Sudeste 21 Sudeste 0 -- -- 33
2019-06-18 07:00:00 18.6 3 Sur 23 Sudeste 0 -- -- 44
2019-06-18 06:00:00 18.9 6 Sur 13 Sudeste 0 -- -- 43
2019-06-18 05:00:00 20.7 7 Sur 20 Sudeste 0 -- -- 38
2019-06-18 04:00:00 21.8 8 Sudeste 25 Sudeste 0 -- -- 37
2019-06-18 03:00:00 23.3 7 Sudeste 15 Sudeste 0 -- -- 35
2019-06-18 02:00:00 23.8 9 Sudeste 20 Este 0 -- -- 33
2019-06-18 01:00:00 24.9 9 Sudeste 20 Sudeste 0 -- -- 28
2019-06-18 00:00:00 23.8 2 Sudeste 13 Sudeste 0 -- -- 29
2019-06-17 23:00:00 22.6 0 Calma 9 Sudeste 0 -- -- 33
2019-06-17 22:00:00 25 3 Este 8 Este 0 -- -- 26
2019-06-17 21:00:00 27.7 4 Nordeste 12 Sudeste 0 -- -- 22
2019-06-17 20:00:00 29.7 9 Sudeste 21 Este 0 -- -- 15
2019-06-17 19:00:00 31.6 8 Sudeste 24 Este 0 -- -- 13
2019-06-17 18:00:00 31.9 13 Este 25 Sudeste 0 -- -- 10
2019-06-17 17:00:00 31.8 15 Sudeste 24 Sudeste 0 -- -- 10
2019-06-17 16:00:00 31.4 10 Sudeste 26 Sudeste 0 -- -- 11
2019-06-17 15:00:00 30.2 10 Sudeste 25 Sudeste 0 -- -- 18
2019-06-17 14:00:00 28.8 11 Sudeste 25 Sudeste 0 -- -- 20
2019-06-17 13:00:00 27.2 10 Sudeste 21 Sudeste -- -- -- 26
2019-06-17 12:00:00 25.3 8 Sur 17 Sudeste 0 -- -- 34
2019-06-17 11:00:00 23.6 9 Sur 21 Sur 0 -- -- 36
2019-06-17 10:00:00 22.1 11 Sudeste 22 Sudeste 0 -- -- 39
2019-06-17 09:00:00 20.6 6 Sudeste 11 Sudeste 0 -- -- 45
2019-06-17 08:00:00 15.6 3 Oeste 5 Norte 0 -- -- 65
2019-06-17 07:00:00 13 3 Noroeste 5 Noroeste 0 -- -- 73
2019-06-17 06:00:00 13.9 2 Nordeste 9 Oeste 0 -- -- 68
2019-06-17 05:00:00 15.7 5 Noroeste 10 Noroeste 0 -- -- 60
2019-06-17 04:00:00 15.6 4 Noroeste 8 Oeste 0 -- -- 63
2019-06-17 03:00:00 15.3 2 Oeste 6 Oeste 0 -- -- 65
2019-06-17 02:00:00 16.3 3 Oeste 6 Oeste 0 -- -- 63
2019-06-17 01:00:00 18.1 3 Noroeste 8 Noroeste 0 -- -- 53
2019-06-17 00:00:00 19.5 5 Noroeste 9 Norte 0 -- -- 46
2019-06-16 23:00:00 19.9 6 Norte 13 Norte 0 -- -- 43
2019-06-16 22:00:00 22.2 8 Norte 12 Norte 0 -- -- 39
2019-06-16 21:00:00 26.4 4 Sur 10 Sur 0 -- -- 17
2019-06-16 20:00:00 28 6 Sudeste 16 Sudeste 0 -- -- 14
2019-06-16 19:00:00 28.6 6 Este 19 Este 0 -- -- 14
2019-06-16 18:00:00 28.8 8 Este 26 Este 0 -- -- 13
2019-06-16 17:00:00 28.1 9 Sudeste 23 Sudoeste 0 -- -- 17
2019-06-16 16:00:00 27.1 13 Sudeste 25 Sudeste 0 -- -- 18
2019-06-16 15:00:00 26.1 10 Sudeste 28 Sur 0 -- -- 21
2019-06-16 14:00:00 24.9 11 Sudeste 22 Sudeste 0 -- -- 23
2019-06-16 13:00:00 23.3 10 Sudeste 23 Sudeste 0 -- -- 28
2019-06-16 12:00:00 21.8 9 Sudeste 21 Sudeste 0 -- -- 33
2019-06-16 11:00:00 19.2 9 Sudeste 14 Sur 0 -- -- 45
2019-06-16 10:00:00 16.9 7 Sur 14 Sudeste 0 -- -- 52
2019-06-16 09:00:00 14.9 2 Este 7 Este 0 -- -- 59
2019-06-16 08:00:00 12.6 5 Noroeste 11 Noroeste 0 -- -- 62
2019-06-16 07:00:00 9.6 6 Noroeste 13 Noroeste 0 -- -- 75
2019-06-16 06:00:00 10.1 3 Noroeste 14 Noroeste 0 -- -- 72
2019-06-16 05:00:00 10.8 7 Noroeste 17 Noroeste 0 -- -- 73
2019-06-16 04:00:00 11.2 12 Noroeste 18 Noroeste 0 -- -- 73
2019-06-16 03:00:00 12 6 Noroeste 18 Noroeste 0 -- -- 69
2019-06-16 02:00:00 12.8 12 Noroeste 20 Noroeste 0 -- -- 64
2019-06-16 01:00:00 13.5 13 Noroeste 21 Noroeste 0 -- -- 61
2019-06-16 00:00:00 14.6 10 Noroeste 18 Noroeste 0 -- -- 56
2019-06-15 23:00:00 15.6 9 Noroeste 18 Norte 0 -- -- 50
2019-06-15 22:00:00 16.7 8 Norte 22 Nordeste 0 -- -- 45
2019-06-15 21:00:00 18.7 10 Norte 31 Norte 0 -- -- 36
2019-06-15 20:00:00 20.2 13 Norte 28 Norte 0 -- -- 35
2019-06-15 19:00:00 20.8 13 Norte 30 Norte 0 -- -- 34
2019-06-15 18:00:00 21.2 15 Norte 34 Norte 0 -- -- 32
2019-06-15 17:00:00 21.7 16 Norte 39 Norte 0 -- -- 32
2019-06-15 16:00:00 21.4 17 Norte 32 Norte 0 -- -- 35
2019-06-15 15:00:00 21.4 14 Norte 31 Norte 0 -- -- 36
2019-06-15 14:00:00 20.6 15 Noroeste 31 Noroeste 0 -- -- 36
2019-06-15 13:00:00 19.4 12 Norte 32 Noroeste 0 -- -- 43
2019-06-15 12:00:00 18.1 14 Norte 30 Noroeste 0 -- -- 51
2019-06-15 11:00:00 17.2 13 Noroeste 28 Oeste 0 -- -- 52
2019-06-15 10:00:00 15.8 14 Noroeste 30 Noroeste 0 -- -- 54
2019-06-15 09:00:00 14.6 15 Noroeste 26 Noroeste 0 -- -- 59
2019-06-15 08:00:00 13.1 12 Noroeste 25 Noroeste 0 -- -- 66
2019-06-15 07:00:00 11.7 8 Noroeste 18 Noroeste 0 -- -- 70
2019-06-15 06:00:00 12.1 9 Noroeste 22 Noroeste 0 -- -- 69
2019-06-15 05:00:00 12.4 10 Noroeste 28 Noroeste 0 -- -- 70
2019-06-15 04:00:00 12.9 13 Noroeste 36 Noroeste 0 -- -- 69
2019-06-15 03:00:00 13.6 13 Noroeste 28 Noroeste 0 -- -- 66
2019-06-15 02:00:00 14.2 13 Noroeste 33 Noroeste 0 -- -- 65
2019-06-15 01:00:00 13.9 14 Noroeste 32 Noroeste 0 -- -- 69
2019-06-15 00:00:00 14.2 18 Norte 37 Noroeste 0 -- -- 69
2019-06-14 23:00:00 14.7 21 Noroeste 37 Noroeste 0 -- -- 67
2019-06-14 22:00:00 15.8 20 Norte 39 Norte 0 -- -- 63
2019-06-14 21:00:00 16.8 17 Norte 34 Norte 0 -- -- 61
2019-06-14 20:00:00 20.7 16 Norte 32 Noroeste 0 -- -- 50
2019-06-14 19:00:00 26.3 9 Noroeste 24 Oeste 0 -- -- 37
2019-06-14 18:00:00 26.2 6 Sudeste 17 Sudeste 0 -- -- 30
2019-06-14 17:00:00 25.7 3 Sudoeste 17 Sudeste 0 -- -- 30
2019-06-14 16:00:00 24.7 10 Sudeste 20 Sudeste 0 -- -- 31
2019-06-14 15:00:00 23.5 10 Sudeste 21 Sudeste 0 -- -- 34
2019-06-14 14:00:00 22.1 9 Sudeste 17 Sudeste 0 -- -- 41
2019-06-14 13:00:00 19.3 2 Oeste 8 Este 0 -- -- 49
2019-06-14 12:00:00 17.9 3 Sur 12 Oeste 0 -- -- 52
2019-06-14 11:00:00 17 3 Sudoeste 8 Sudoeste 0 -- -- 55
2019-06-14 10:00:00 16 3 Sudeste 12 Noroeste 0 -- -- 59
2019-06-14 09:00:00 14.1 6 Noroeste 15 Noroeste 0 -- -- 67
2019-06-14 08:00:00 13.1 7 Noroeste 11 Noroeste 0 -- -- 70
2019-06-14 07:00:00 11.9 5 Noroeste 14 Noroeste 0 -- -- 74
2019-06-14 06:00:00 12.4 6 Noroeste 14 Noroeste 0 -- -- 73
2019-06-14 05:00:00 13 8 Noroeste 13 Noroeste 0 -- -- 71
2019-06-14 04:00:00 13.9 5 Noroeste 16 Oeste 0 -- -- 67
2019-06-14 03:00:00 14.3 7 Noroeste 17 Oeste 0 -- -- 67
2019-06-14 02:00:00 14.5 8 Noroeste 22 Norte 0 -- -- 66
2019-06-14 01:00:00 14.8 6 Noroeste 23 Norte 0 -- -- 64
2019-06-14 00:00:00 15.9 13 Noroeste 24 Norte 0 -- -- 60
2019-06-13 23:00:00 17.6 12 Norte 41 Sudeste 0 -- -- 54
2019-06-13 22:00:00 21.7 21 Sudeste 43 Sudeste 0 -- -- 33
2019-06-13 21:00:00 23.9 26 Sudeste 49 Sudeste 0 -- -- 31
2019-06-13 20:00:00 25.4 26 Sudeste 45 Sudeste 0 -- -- 27
2019-06-13 19:00:00 25.7 26 Sudeste 48 Sudeste 0 -- -- 30
2019-06-13 18:00:00 26.3 26 Sudeste 46 Sudeste 0 -- -- 29
2019-06-13 17:00:00 25.2 23 Sudeste 48 Sudeste 0 -- -- 32
2019-06-13 16:00:00 25.6 23 Sudeste 47 Sudeste 0 -- -- 31
2019-06-13 15:00:00 24.9 24 Sudeste 41 Sudeste 0 -- -- 32
2019-06-13 14:00:00 23.2 23 Sudeste 44 Sudeste 0 -- -- 37
2019-06-13 13:00:00 21.9 26 Sudeste 47 Sudeste 0 -- -- 38
2019-06-13 12:00:00 20.8 26 Sudeste 44 Sudeste 0 -- -- 38
2019-06-13 11:00:00 19.7 22 Sudeste 40 Sudeste 0 -- -- 37
2019-06-13 10:00:00 17.4 21 Sudeste 40 Sudeste 0 -- -- 37
2019-06-13 09:00:00 14.6 13 Sudeste 25 Sudeste 0 -- -- 46
2019-06-13 08:00:00 11.9 5 Sudeste 9 Sur 0 -- -- 60
2019-06-13 07:00:00 9.1 0 Calma 4 Este 0 -- -- 76
2019-06-13 06:00:00 8.6 0 Calma 4 Sur 0 -- -- 78
2019-06-13 05:00:00 8.2 0 Calma 3 Noroeste 0 -- -- 80
2019-06-13 04:00:00 8.7 0 Calma 6 Oeste 0 -- -- 76
2019-06-13 03:00:00 9.5 2 Noroeste 6 Oeste 0 -- -- 73
2019-06-13 02:00:00 10.4 3 Noroeste 9 Noroeste 0 -- -- 69
2019-06-13 01:00:00 12 5 Noroeste 11 Noroeste 0 -- -- 61
2019-06-13 00:00:00 12.2 6 Norte 19 Norte 0 -- -- 62
2019-06-12 23:00:00 13.3 10 Norte 18 Norte 0 -- -- 58
2019-06-12 22:00:00 14.7 13 Norte 27 Norte 0 -- -- 54
2019-06-12 21:00:00 18 12 Norte 23 Norte 0 -- -- 43
2019-06-12 20:00:00 21.3 3 Norte 9 Norte 0 -- -- 22
2019-06-12 19:00:00 20.8 4 Norte 10 Norte 0 -- -- 26
2019-06-12 18:00:00 21.2 5 Norte 15 Este 0 -- -- 23
2019-06-12 17:00:00 20.7 7 Nordeste 30 Sur 0 -- -- 24
2019-06-12 16:00:00 20.4 4 Sudoeste 31 Sudeste 0 -- -- 28
2019-06-12 15:00:00 19.6 4 Oeste 18 Sur 0 -- -- 27
2019-06-12 14:00:00 18.4 6 Sudoeste 18 Este 0 -- -- 29
2019-06-12 13:00:00 16.7 7 Este 19 Este 0 -- -- 36
2019-06-12 12:00:00 16 6 Sur 17 Sur 0 -- -- 39
2019-06-12 11:00:00 14.6 3 Sur 10 Norte 0 -- -- 39
2019-06-12 10:00:00 13.2 5 Este 10 Este 0 -- -- 49
2019-06-12 09:00:00 10.9 3 Este 6 Este 0 -- -- 63
2019-06-12 08:00:00 6.4 0 Calma 5 Noroeste 0 -- -- 84
2019-06-12 07:00:00 4.4 3 Norte 7 Noroeste 0 -- -- 90
2019-06-12 06:00:00 4.4 4 Noroeste 7 Norte 0 -- -- 91
2019-06-12 05:00:00 4.5 0 Calma 5 Oeste 0 -- -- 86
2019-06-12 04:00:00 5.6 3 Noroeste 8 Noroeste 0 -- -- 84
2019-06-12 03:00:00 6.2 5 Noroeste 8 Noroeste 0 -- -- 86
2019-06-12 02:00:00 6.6 0 Calma 6 Norte 0 -- -- 83
2019-06-12 01:00:00 7.4 0 Calma 7 Nordeste 0 -- -- 80
2019-06-12 00:00:00 8.2 0 Calma 7 Noroeste 0 -- -- 76
2019-06-11 23:00:00 9.9 4 Noroeste 13 Noroeste 0 -- -- 69
2019-06-11 22:00:00 11 5 Noroeste 17 Norte 0 -- -- 61
2019-06-11 21:00:00 12.2 13 Norte 28 Norte 0 -- -- 57
2019-06-11 20:00:00 13.5 11 Norte 29 Norte 0 -- -- 51
2019-06-11 19:00:00 13.6 15 Norte 45 Norte 0 -- -- 49
2019-06-11 18:00:00 13.4 24 Norte 42 Norte 0 -- -- 49
2019-06-11 17:00:00 14.8 15 Norte 39 Oeste 0 -- -- 44
2019-06-11 16:00:00 16.8 22 Noroeste 52 Noroeste 0 -- -- 35
2019-06-11 15:00:00 14.8 14 Norte 39 Noroeste 0 -- -- 42
2019-06-11 14:00:00 15.2 15 Noroeste 46 Noroeste 0 -- -- 42
2019-06-11 13:00:00 14.9 14 Norte 38 Noroeste 0 -- -- 45
2019-06-11 12:00:00 14.1 14 Noroeste 28 Noroeste 0 -- -- 45
2019-06-11 11:00:00 13.6 17 Noroeste 29 Noroeste 0 -- -- 51
2019-06-11 10:00:00 12 14 Noroeste 24 Oeste 0 -- -- 64
2019-06-11 09:00:00 11.3 14 Noroeste 22 Noroeste 0 -- -- 69
2019-06-11 08:00:00 9.8 13 Noroeste 20 Noroeste 0 -- -- 89
2019-06-11 07:00:00 9.3 10 Noroeste 17 Noroeste 0 -- -- 89
2019-06-11 06:00:00 9.1 12 Noroeste 21 Noroeste 0.2 -- -- 88
2019-06-11 05:00:00 9.2 12 Noroeste 17 Noroeste 0.2 -- -- 86
2019-06-11 04:00:00 9.4 9 Noroeste 15 Noroeste 0.8 -- -- 80
2019-06-11 03:00:00 10.2 9 Noroeste 20 Noroeste 0.6 -- -- 71
2019-06-11 02:00:00 11.2 14 Noroeste 27 Norte 0 -- -- 57
2019-06-11 01:00:00 11.6 13 Noroeste 23 Noroeste 0 -- -- 55
2019-06-11 00:00:00 11.6 12 Norte 35 Norte 0 -- -- 57
2019-06-10 23:00:00 12.1 11 Norte 28 Noroeste 0 -- -- 54
2019-06-10 22:00:00 12.9 13 Noroeste 38 Noroeste 0 -- -- 49
2019-06-10 21:00:00 13.6 16 Noroeste 39 Norte 0 -- -- 47
2019-06-10 20:00:00 14.3 21 Norte 41 Noroeste 0 -- -- 46
2019-06-10 19:00:00 15.9 19 Norte 41 Norte 0 -- -- 45
2019-06-10 18:00:00 16.3 21 Norte 41 Norte 0 -- -- 43
2019-06-10 17:00:00 16.2 20 Norte 43 Norte 0 -- -- 40
2019-06-10 16:00:00 17 23 Norte 40 Noroeste 0 -- -- 41
2019-06-10 15:00:00 16.9 21 Noroeste 36 Noroeste 0 -- -- 46
2019-06-10 14:00:00 16.2 16 Norte 31 Noroeste 0 -- -- 48
2019-06-10 13:00:00 15.8 17 Norte 36 Noroeste 0 -- -- 50
2019-06-10 12:00:00 15.1 17 Norte 35 Noroeste 0 -- -- 54
2019-06-10 11:00:00 14 18 Noroeste 36 Noroeste 0 -- -- 56
2019-06-10 10:00:00 13.6 19 Noroeste 36 Noroeste 0 -- -- 59
2019-06-10 09:00:00 12.4 16 Noroeste 36 Noroeste 0 -- -- 64
2019-06-10 08:00:00 12 20 Noroeste 34 Noroeste 0 -- -- 65
2019-06-10 07:00:00 11.6 17 Noroeste 31 Noroeste 0 -- -- 66
2019-06-10 06:00:00 11.9 19 Noroeste 34 Noroeste 0 -- -- 68
2019-06-10 05:00:00 11.8 18 Noroeste 40 Noroeste 0 -- -- 70
2019-06-10 04:00:00 12.1 18 Noroeste 35 Noroeste 0 -- -- 68
2019-06-10 03:00:00 12.6 19 Noroeste 42 Noroeste 0 -- -- 68
2019-06-10 02:00:00 12.7 17 Noroeste 44 Norte 0 -- -- 68
2019-06-10 01:00:00 13.1 18 Norte 40 Noroeste 0 -- -- 68
2019-06-10 00:00:00 13.5 23 Norte 50 Norte 0 -- -- 68
2019-06-09 23:00:00 13.8 26 Norte 50 Norte 0 -- -- 69
2019-06-09 22:00:00 14.3 24 Norte 51 Noroeste 0 -- -- 66
2019-06-09 21:00:00 14.7 26 Norte 57 Norte 0.4 -- -- 71
2019-06-09 20:00:00 16.7 23 Norte 51 Noroeste 0 -- -- 59
2019-06-09 19:00:00 18.7 26 Norte 48 Norte 0 -- -- 53
2019-06-09 18:00:00 21.8 21 Norte 44 Norte 0 -- -- 46
2019-06-09 17:00:00 24.6 19 Norte 36 Noroeste 0 -- -- 38
2019-06-09 16:00:00 25.9 5 Norte 14 Noroeste 0 -- -- 23
2019-06-09 15:00:00 25.4 3 Nordeste 17 Sur 0 -- -- 24
2019-06-09 14:00:00 24.4 8 Sur 19 Este 0 -- -- 26
2019-06-09 13:00:00 23.1 9 Sudeste 17 Este 0 -- -- 26
2019-06-09 12:00:00 22.1 7 Sudeste 17 Este 0 -- -- 28
2019-06-09 11:00:00 20.6 6 Sudeste 12 Sudeste 0 -- -- 27
2019-06-09 10:00:00 18.8 0 Calma 8 Sudeste 0 -- -- 37
2019-06-09 09:00:00 17.9 6 Sudeste 10 Sudeste 0 -- -- 40
2019-06-09 08:00:00 14 0 Calma 4 Este 0 -- -- 62
2019-06-09 07:00:00 13.4 0 Calma 6 Este 0 -- -- 63
2019-06-09 06:00:00 14.9 3 Sudeste 12 Sur 0 -- -- 52
2019-06-09 05:00:00 15.5 6 Sur 12 Sudeste 0 -- -- 46
2019-06-09 04:00:00 14.9 6 Sudeste 10 Este 0 -- -- 52
2019-06-09 03:00:00 14.4 3 Norte 5 Noroeste 0 -- -- 55
2019-06-09 02:00:00 16.1 0 Calma 18 Sudeste 0 -- -- 42
2019-06-09 01:00:00 18.2 8 Sudeste 22 Este 0 -- -- 33
2019-06-09 00:00:00 19.4 8 Sudeste 26 Este 0 -- -- 32
2019-06-08 23:00:00 20.3 9 Sudeste 26 Sudeste 0 -- -- 35
2019-06-08 22:00:00 21.4 9 Sudeste 17 Sudeste 0 -- -- 33
2019-06-08 21:00:00 22.1 8 Este 21 Sudeste 0 -- -- 33
2019-06-08 20:00:00 23.6 15 Sudeste 30 Sudeste 0 -- -- 28
2019-06-08 19:00:00 24 16 Sudeste 31 Sudeste 0 -- -- 26
2019-06-08 18:00:00 24.8 11 Sudeste 24 Sur 0 -- -- 23
2019-06-08 17:00:00 24.2 13 Sudeste 28 Sudeste 0 -- -- 24
2019-06-08 16:00:00 24 13 Sur 32 Sudeste 0 -- -- 22
2019-06-08 15:00:00 23.3 14 Sudeste 35 Sudeste 0 -- -- 24
2019-06-08 14:00:00 21.8 17 Sudeste 29 Sudeste 0 -- -- 24
2019-06-08 13:00:00 20.3 12 Sudeste 22 Sudeste 0 -- -- 30
2019-06-08 12:00:00 19 8 Sudeste 16 Sudeste 0 -- -- 36
2019-06-08 11:00:00 17.7 3 Nordeste 10 Sudeste 0 -- -- 39
2019-06-08 10:00:00 15.6 3 Oeste 8 Noroeste 0 -- -- 42
2019-06-08 09:00:00 12.8 6 Noroeste 12 Noroeste 0 -- -- 51
2019-06-08 08:00:00 9.9 5 Noroeste 10 Noroeste 0 -- -- 59
2019-06-08 07:00:00 7.6 4 Noroeste 15 Noroeste 0 -- -- 66
2019-06-08 06:00:00 7.4 6 Noroeste 15 Noroeste 0 -- -- 68
2019-06-08 05:00:00 8.6 12 Noroeste 18 Noroeste 0 -- -- 60
2019-06-08 04:00:00 8.9 7 Noroeste 15 Noroeste 0 -- -- 59
2019-06-08 03:00:00 10.1 7 Noroeste 25 Noroeste 0 -- -- 52
2019-06-08 02:00:00 11.2 11 Noroeste 26 Noroeste 0 -- -- 48
2019-06-08 01:00:00 11.5 7 Noroeste 15 Norte 0 -- -- 48
2019-06-08 00:00:00 11.8 10 Norte 23 Norte 0 -- -- 52
2019-06-07 23:00:00 12.2 10 Norte 29 Norte 0 -- -- 53
2019-06-07 22:00:00 13.4 14 Norte 29 Norte 0 -- -- 50
2019-06-07 21:00:00 15.1 11 Norte 31 Nordeste 0 -- -- 46
2019-06-07 20:00:00 17.5 17 Norte 32 Norte 0 -- -- 42
2019-06-07 19:00:00 19 14 Norte 30 Noroeste 0 -- -- 35
2019-06-07 18:00:00 21.2 15 Noroeste 33 Noroeste 0 -- -- 17
2019-06-07 17:00:00 20.9 13 Noroeste 29 Oeste 0 -- -- 19
2019-06-07 16:00:00 19.8 11 Oeste 31 Noroeste 0 -- -- 20
2019-06-07 15:00:00 19.3 17 Noroeste 32 Noroeste 0 -- -- 24
2019-06-07 14:00:00 18.2 11 Noroeste 24 Oeste 0 -- -- 27
2019-06-07 13:00:00 17.6 7 Noroeste 24 Noroeste 0 -- -- 31
2019-06-07 12:00:00 18.1 7 Oeste 27 Sudoeste 0 -- -- 31
2019-06-07 11:00:00 16.5 4 Sur 14 Oeste 0 -- -- 33
2019-06-07 10:00:00 15.2 7 Noroeste 16 Noroeste 0 -- -- 39
2019-06-07 09:00:00 14.3 11 Noroeste 22 Noroeste 0 -- -- 40
2019-06-07 08:00:00 13.3 7 Oeste 20 Oeste 0 -- -- 44
2019-06-07 07:00:00 13.2 9 Oeste 26 Noroeste 0 -- -- 42
2019-06-07 06:00:00 12.4 12 Oeste 34 Oeste 0 -- -- 54
2019-06-07 05:00:00 12.6 21 Noroeste 38 Oeste 0 -- -- 54
2019-06-07 04:00:00 15.1 12 Oeste 56 Sudeste 0 -- -- 52
2019-06-07 03:00:00 16.4 30 Sudeste 58 Sudeste 0 -- -- 57
2019-06-07 02:00:00 16.7 30 Sudeste 51 Sudeste 0 -- -- 56
2019-06-07 01:00:00 17.1 30 Sudeste 53 Sur 0 -- -- 51
2019-06-07 00:00:00 17.8 29 Sudeste 58 Sudeste 0 -- -- 47
2019-06-06 23:00:00 18.4 22 Sudeste 49 Sudeste 0 -- -- 44
2019-06-06 22:00:00 19.3 28 Sudeste 53 Sudeste 0 -- -- 40
2019-06-06 21:00:00 20.2 27 Sudeste 53 Sudeste 0 -- -- 41
2019-06-06 20:00:00 22.4 23 Sudeste 57 Sudeste 0 -- -- 35
2019-06-06 19:00:00 23.8 29 Sudeste 49 Sudeste 0 -- -- 27
2019-06-06 18:00:00 23.2 24 Sudeste 48 Sudeste 0 -- -- 23
2019-06-06 17:00:00 24.7 24 Sudeste 51 Sudeste 0 -- -- 22
2019-06-06 16:00:00 23.5 23 Sudeste 44 Sudeste 0 -- -- 25
2019-06-06 15:00:00 22.1 24 Sudeste 40 Sudeste 0 -- -- 29
2019-06-06 14:00:00 20.1 23 Sudeste 40 Sudeste 0 -- -- 38
2019-06-06 13:00:00 18.8 19 Sudeste 33 Este 0 -- -- 42
2019-06-06 12:00:00 17.6 14 Sudeste 28 Sudeste 0 -- -- 45
2019-06-06 11:00:00 16.2 11 Sudeste 21 Sudeste 0 -- -- 44
2019-06-06 10:00:00 13.8 8 Sur 12 Sur 0 -- -- 60
2019-06-06 09:00:00 12.2 5 Sudeste 8 Sur 0 -- -- 71
2019-06-06 08:00:00 9.9 2 Norte 3 Norte 0 -- -- 81
2019-06-06 07:00:00 9.2 0 Calma 10 Noroeste 0 -- -- 82
2019-06-06 06:00:00 9.6 5 Noroeste 10 Noroeste 0 -- -- 78
2019-06-06 05:00:00 9.4 8 Noroeste 12 Noroeste 0 -- -- 78
2019-06-06 04:00:00 9.7 6 Noroeste 17 Noroeste 0 -- -- 77
2019-06-06 03:00:00 10 12 Noroeste 23 Noroeste 0 -- -- 73
2019-06-06 02:00:00 10.8 9 Oeste 16 Noroeste 0 -- -- 67
2019-06-06 01:00:00 11.7 6 Noroeste 12 Oeste 0 -- -- 61
2019-06-06 00:00:00 11.8 9 Noroeste 18 Noroeste 0 -- -- 58
2019-06-05 23:00:00 11.8 8 Noroeste 19 Noroeste 0 -- -- 61
2019-06-05 22:00:00 12.1 8 Norte 22 Norte 0 -- -- 62
2019-06-05 21:00:00 13.3 8 Norte 26 Norte 0 -- -- 58
2019-06-05 20:00:00 14.8 14 Norte 33 Norte 0 -- -- 54
2019-06-05 19:00:00 15.6 11 Norte 32 Norte 0 -- -- 53
2019-06-05 18:00:00 16.4 16 Norte 36 Norte 0 -- -- 50
2019-06-05 17:00:00 16.2 14 Norte 33 Nordeste 0 -- -- 51
2019-06-05 16:00:00 16 18 Noroeste 33 Noroeste 0 -- -- 49
2019-06-05 15:00:00 15.8 21 Noroeste 33 Noroeste 0 -- -- 55
2019-06-05 14:00:00 13.9 22 Noroeste 31 Noroeste 0 -- -- 59
2019-06-05 13:00:00 13.8 15 Noroeste 37 Noroeste 0 -- -- 59
2019-06-05 12:00:00 13.1 18 Noroeste 34 Noroeste 0 -- -- 66
2019-06-05 11:00:00 11.8 17 Noroeste 30 Noroeste 0 -- -- 78
2019-06-05 10:00:00 11.2 19 Noroeste 37 Noroeste 0.4 -- -- 94
2019-06-05 09:00:00 10.8 17 Noroeste 42 Oeste 6.4 -- -- 94
2019-06-05 08:00:00 11.1 18 Noroeste 30 Noroeste 2.4 -- -- 86
2019-06-05 07:00:00 11.2 13 Noroeste 26 Noroeste 1 -- -- 88
2019-06-05 06:00:00 11 14 Noroeste 31 Norte 4 -- -- 89
2019-06-05 05:00:00 11.4 14 Noroeste 34 Noroeste 1.6 -- -- 82
2019-06-05 04:00:00 11.6 11 Noroeste 32 Noroeste 0.6 -- -- 78
2019-06-05 03:00:00 12.8 16 Noroeste 36 Noroeste 0 -- -- 66
2019-06-05 02:00:00 12.9 18 Noroeste 32 Noroeste 0 -- -- 62
2019-06-05 01:00:00 13.3 16 Noroeste 29 Noroeste 0 -- -- 63
2019-06-05 00:00:00 13.3 18 Noroeste 37 Noroeste 0 -- -- 68
2019-06-04 23:00:00 13.7 18 Noroeste 50 Norte 0 -- -- 69
2019-06-04 22:00:00 15.2 21 Noroeste 37 Norte 0 -- -- 67
2019-06-04 21:00:00 16.9 20 Norte 46 Norte 0 -- -- 61
2019-06-04 20:00:00 18.1 26 Norte 53 Norte 0 -- -- 59
2019-06-04 19:00:00 20.1 25 Norte 66 Norte 0 -- -- 55
2019-06-04 18:00:00 24.8 19 Norte 35 Noroeste 0 -- -- 44
2019-06-04 17:00:00 30.2 9 Oeste 39 Sur 0 -- -- 20
2019-06-04 16:00:00 29.9 21 Sur 40 Sur 0 -- -- 18
2019-06-04 15:00:00 30.7 19 Sudeste 41 Sudeste 0 -- -- 18
2019-06-04 14:00:00 29.3 21 Sudeste 40 Sudeste 0 -- -- 20
2019-06-04 13:00:00 27.8 22 Sudeste 39 Sudeste 0 -- -- 21
2019-06-04 12:00:00 25.9 22 Sudeste 45 Sudeste 0 -- -- 24
2019-06-04 11:00:00 24 22 Sudeste 39 Este 0 -- -- 26
2019-06-04 10:00:00 22.3 22 Sudeste 41 Sudeste 0 -- -- 28
2019-06-04 09:00:00 20 14 Sudeste 27 Sur 0 -- -- 33
2019-06-04 08:00:00 18.8 8 Sudeste 25 Sudeste 0 -- -- 34
2019-06-04 07:00:00 18 13 Sudeste 24 Sudeste 0 -- -- 34
2019-06-04 06:00:00 18 10 Sudeste 25 Sudeste 0 -- -- 35
2019-06-04 05:00:00 18.2 9 Sudeste 17 Sudeste 0 -- -- 37
2019-06-04 04:00:00 18.9 10 Sudeste 30 Sudeste 0 -- -- 38
2019-06-04 03:00:00 19.9 10 Sur 19 Sudeste 0 -- -- 36
2019-06-04 02:00:00 21.6 10 Sudeste 23 Sudeste 0 -- -- 34
2019-06-04 01:00:00 22.8 12 Sudeste 27 Sudeste 0 -- -- 32
2019-06-04 00:00:00 24.8 13 Sudeste 30 Sur 0 -- -- 29
2019-06-03 23:00:00 25.6 10 Sudeste 16 Sudeste 0 -- -- 28
2019-06-03 22:00:00 24.7 0 Calma 17 Sudeste 0 -- -- 34
2019-06-03 21:00:00 27.5 8 Sudeste 25 Sudeste 0 -- -- 26
2019-06-03 20:00:00 29.7 14 Sudeste 29 Sudeste 0 -- -- 22
2019-06-03 19:00:00 30.9 11 Sudeste 21 Sur 0 -- -- 20
2019-06-03 18:00:00 30.7 8 Sudeste 21 Sudeste 0 -- -- 20
2019-06-03 17:00:00 29.9 8 Sudeste 21 Sudeste 0 -- -- 22
2019-06-03 16:00:00 29.6 10 Sudeste 22 Sudeste 0 -- -- 20
2019-06-03 15:00:00 28.4 13 Sudeste 23 Este 0 -- -- 22
2019-06-03 14:00:00 26.7 12 Sudeste 23 Sudeste 0 -- -- 24
2019-06-03 13:00:00 24.7 7 Sudeste 17 Sudeste 0 -- -- 28
2019-06-03 12:00:00 23.7 4 Nordeste 12 Sudeste 0 -- -- 30
2019-06-03 11:00:00 22.8 7 Sudeste 13 Sudeste 0 -- -- 28
2019-06-03 10:00:00 20.5 5 Sur 10 Sudeste 0 -- -- 37
2019-06-03 09:00:00 17.4 0 Calma 5 Noroeste 0 -- -- 59
2019-06-03 08:00:00 16.1 0 Calma 4 Noroeste 0 -- -- 63
2019-06-03 07:00:00 16.2 0 Calma 10 Oeste 0 -- -- 64
2019-06-03 06:00:00 16.5 2 Norte 12 Este 0 -- -- 55
2019-06-03 05:00:00 16.2 0 Calma 6 Noroeste 0 -- -- 66
2019-06-03 04:00:00 17.4 4 Oeste 15 Oeste 0 -- -- 56
2019-06-03 03:00:00 18 9 Noroeste 14 Noroeste 0 -- -- 55
2019-06-03 02:00:00 18 0 Calma 9 Sur 0 -- -- 61
2019-06-03 01:00:00 19.1 2 Sudoeste 9 Noroeste 0 -- -- 62
2019-06-03 00:00:00 21 5 Noroeste 11 Noroeste 0 -- -- 57
2019-06-02 23:00:00 22.3 4 Noroeste 14 Noroeste 0 -- -- 54
2019-06-02 22:00:00 24.2 8 Norte 18 Noroeste 0 -- -- 46
2019-06-02 21:00:00 26.8 2 Nordeste 8 Noroeste 0 -- -- 37
2019-06-02 20:00:00 29.8 0 Calma 5 Este 0 -- -- 28
2019-06-02 19:00:00 29.5 3 Norte 6 Este 0 -- -- 29
2019-06-02 18:00:00 31 0 Calma 14 Sudeste 0 -- -- 20
2019-06-02 17:00:00 31.4 8 Este 18 Sudeste 0 -- -- 19
2019-06-02 16:00:00 30.4 5 Este 19 Sudeste 0 -- -- 20
2019-06-02 15:00:00 29.9 10 Sudeste 23 Sudeste 0 -- -- 20
2019-06-02 14:00:00 29 13 Sudeste 24 Sudeste 0 -- -- 21
2019-06-02 13:00:00 27.8 15 Sudeste 29 Sudeste 0 -- -- 24
2019-06-02 12:00:00 26.4 15 Sudeste 28 Sudeste 0 -- -- 26
2019-06-02 11:00:00 24.1 17 Sudeste 28 Sur 0 -- -- 33
2019-06-02 10:00:00 21.9 15 Sudeste 25 Sudeste 0 -- -- 35
2019-06-02 09:00:00 19.3 4 Este 9 Sudeste 0 -- -- 51
2019-06-02 08:00:00 15.2 3 Norte 6 Noroeste 0 -- -- 65
2019-06-02 07:00:00 13.1 3 Noroeste 7 Oeste 0 -- -- 70
2019-06-02 06:00:00 14.6 0 Calma 8 Sur 0 -- -- 61
2019-06-02 05:00:00 16.9 4 Sur 10 Sudoeste 0 -- -- 53
2019-06-02 04:00:00 16.1 4 Sudoeste 9 Sur 0 -- -- 56
2019-06-02 03:00:00 16.5 3 Este 9 Este 0 -- -- 53
2019-06-02 02:00:00 15.3 2 Este 4 Oeste 0 -- -- 60
2019-06-02 01:00:00 16.6 2 Noroeste 8 Oeste 0 -- -- 53
2019-06-02 00:00:00 17.4 4 Noroeste 7 Noroeste 0 -- -- 49
2019-06-01 23:00:00 20.3 4 Noroeste 10 Noroeste 0 -- -- 43
2019-06-01 22:00:00 22.9 0 Calma 5 Este 0 -- -- 37
2019-06-01 21:00:00 27.7 3 Este 6 Sur 0 -- -- 23
2019-06-01 20:00:00 30.4 0 Calma 10 Sur 0 -- -- 14
2019-06-01 19:00:00 30.4 4 Sudeste 13 Sudeste 0 -- -- 14
2019-06-01 18:00:00 30.2 5 Nordeste 18 Sudeste 0 -- -- 18
2019-06-01 17:00:00 30 6 Sudeste 21 Sur 0 -- -- 20
2019-06-01 16:00:00 29.4 9 Sudeste 23 Sur 0 -- -- 19
2019-06-01 15:00:00 28.5 10 Sudeste 22 Sur 0 -- -- 25
2019-06-01 14:00:00 27.5 11 Sudeste 23 Sudeste 0 -- -- 29
2019-06-01 13:00:00 26.2 14 Sudeste 27 Sudeste 0 -- -- 29
2019-06-01 12:00:00 24.7 14 Sudeste 25 Sudeste 0 -- -- 34
2019-06-01 11:00:00 22.4 13 Sudeste 24 Sudeste 0 -- -- 40
2019-06-01 10:00:00 20.4 5 Sur 10 Sur 0 -- -- 48
2019-06-01 09:00:00 18.1 3 Norte 6 Oeste 0 -- -- 57
2019-06-01 08:00:00 14.4 5 Noroeste 9 Noroeste 0 -- -- 74
2019-06-01 07:00:00 11.5 4 Oeste 6 Oeste 0 -- -- 85
2019-06-01 06:00:00 12.5 6 Noroeste 8 Oeste 0 -- -- 77
2019-06-01 05:00:00 12.8 3 Noroeste 5 Norte 0 -- -- 77
2019-06-01 04:00:00 13.1 0 Calma 4 Sudoeste 0 -- -- 78
2019-06-01 03:00:00 14.1 2 Noroeste 5 Noroeste 0 -- -- 74
2019-06-01 02:00:00 15.6 4 Oeste 8 Noroeste 0 -- -- 68
2019-06-01 01:00:00 17 4 Noroeste 7 Noroeste 0 -- -- 63
2019-06-01 00:00:00 17.9 4 Noroeste 6 Oeste 0 -- -- 63
2019-05-31 23:00:00 19.5 0 Calma 7 Noroeste 0 -- -- 58
2019-05-31 22:00:00 23.1 4 Nordeste 12 Noroeste 0 -- -- 46
2019-05-31 21:00:00 27.1 3 Oeste 6 Noroeste 0 -- -- 25
2019-05-31 20:00:00 28.5 2 Norte 9 Noroeste 0 -- -- 26
2019-05-31 19:00:00 28.5 5 Norte 14 Noroeste 0 -- -- 21
2019-05-31 18:00:00 28.4 4 Nordeste 10 Sudeste 0 -- -- 22
2019-05-31 17:00:00 28.2 5 Oeste 11 Noroeste 0 -- -- 21
2019-05-31 16:00:00 27.2 3 Noroeste 12 Sudeste 0 -- -- 23
2019-05-31 15:00:00 26.1 6 Sudeste 16 Sudeste 0 -- -- 24
2019-05-31 14:00:00 24.6 5 Nordeste 14 Sudeste 0 -- -- 31
2019-05-31 13:00:00 23.7 6 Sur 13 Sudeste 0 -- -- 38
2019-05-31 12:00:00 22.1 6 Sur 15 Sur 0 -- -- 41
2019-05-31 11:00:00 21.2 5 Sur 13 Sudeste 0 -- -- 44
2019-05-31 10:00:00 19.9 3 Sur 8 Sudoeste 0 -- -- 48
2019-05-31 09:00:00 17.3 0 Calma 6 Noroeste 0.2 -- -- 59
2019-05-31 08:00:00 13.1 3 Noroeste 6 Noroeste 0 -- -- 73
2019-05-31 07:00:00 10.4 4 Noroeste 8 Noroeste 0 -- -- 80
2019-05-31 06:00:00 10.8 4 Noroeste 6 Noroeste 0 -- -- 82
2019-05-31 05:00:00 11.9 0 Calma 8 Oeste 0 -- -- 74
2019-05-31 04:00:00 14.6 3 Noroeste 25 Noroeste 0 -- -- 68
2019-05-31 03:00:00 15.5 14 Noroeste 29 Noroeste 0 -- -- 66
2019-05-31 02:00:00 16.2 17 Noroeste 30 Norte 0.2 -- -- 65
2019-05-31 01:00:00 16.1 6 Nordeste 35 Norte 0.6 -- -- 67
2019-05-31 00:00:00 17.1 17 Norte 36 Norte 0 -- -- 62
2019-05-30 23:00:00 17.9 19 Noroeste 39 Noroeste 0 -- -- 60
2019-05-30 22:00:00 19.5 18 Noroeste 31 Noroeste 0 -- -- 53
2019-05-30 21:00:00 21.9 14 Noroeste 24 Noroeste 0 -- -- 44
2019-05-30 20:00:00 24.1 12 Norte 38 Noroeste 0 -- -- 36
2019-05-30 19:00:00 25.8 15 Noroeste 35 Noroeste 0 -- -- 26
2019-05-30 18:00:00 26.5 17 Norte 38 Noroeste 0 -- -- 24
2019-05-30 17:00:00 26.5 18 Noroeste 33 Noroeste 0 -- -- 22
2019-05-30 16:00:00 26.2 16 Noroeste 31 Noroeste 0 -- -- 26
2019-05-30 15:00:00 25 15 Noroeste 34 Noroeste 0 -- -- 31
2019-05-30 14:00:00 24.1 16 Noroeste 32 Noroeste 0 -- -- 29
2019-05-30 13:00:00 22.8 18 Noroeste 37 Noroeste 0 -- -- 35
2019-05-30 12:00:00 21.2 17 Noroeste 33 Norte 0 -- -- 39
2019-05-30 11:00:00 18.9 16 Norte 37 Noroeste 0 -- -- 45
2019-05-30 10:00:00 17 18 Noroeste 35 Noroeste 0 -- -- 45
2019-05-30 09:00:00 15 14 Noroeste 27 Noroeste 0 -- -- 48
2019-05-30 08:00:00 12.5 6 Noroeste 13 Noroeste 0 -- -- 56
2019-05-30 07:00:00 9.6 8 Norte 27 Noroeste 0 -- -- 64
2019-05-30 06:00:00 10.7 18 Noroeste 31 Noroeste 0 -- -- 60
2019-05-30 05:00:00 10.5 18 Noroeste 31 Norte 0 -- -- 61
2019-05-30 04:00:00 10.7 19 Noroeste 36 Noroeste 0 -- -- 59
2019-05-30 03:00:00 10.9 19 Noroeste 31 Noroeste 0 -- -- 57
2019-05-30 02:00:00 10.8 15 Noroeste 24 Noroeste 0 -- -- 60
2019-05-30 01:00:00 11.4 13 Oeste 22 Noroeste 0 -- -- 58
2019-05-30 00:00:00 12.2 14 Noroeste 24 Noroeste 0 -- -- 57
2019-05-29 23:00:00 12.8 17 Noroeste 30 Noroeste 0 -- -- 54
2019-05-29 22:00:00 13.7 14 Noroeste 28 Oeste 0 -- -- 48
2019-05-29 21:00:00 14.7 12 Noroeste 31 Noroeste 0 -- -- 47
2019-05-29 20:00:00 16.2 16 Norte 41 Norte 0 -- -- 42
2019-05-29 19:00:00 17.3 19 Norte 46 Norte 0 -- -- 41
2019-05-29 18:00:00 17.5 24 Norte 42 Norte 0 -- -- 41
2019-05-29 17:00:00 18 22 Norte 39 Norte 0 -- -- 36
2019-05-29 16:00:00 17.7 21 Norte 43 Noroeste 0 -- -- 40
2019-05-29 15:00:00 17.6 18 Norte 38 Noroeste 0 -- -- 37
2019-05-29 14:00:00 15.9 19 Noroeste 40 Noroeste 0 -- -- 41
2019-05-29 13:00:00 15.7 17 Noroeste 37 Noroeste 0 -- -- 46
2019-05-29 12:00:00 15.6 17 Norte 35 Norte 0 -- -- 50
2019-05-29 11:00:00 14.7 18 Norte 43 Noroeste 0 -- -- 50
2019-05-29 10:00:00 13.1 15 Noroeste 26 Noroeste 0 -- -- 70
2019-05-29 09:00:00 11.3 12 Noroeste 20 Oeste 0 -- -- 79
2019-05-29 08:00:00 10.5 8 Noroeste 17 Noroeste 0 -- -- 81
2019-05-29 07:00:00 10.2 8 Noroeste 25 Noroeste 0 -- -- 77
2019-05-29 06:00:00 10.3 17 Noroeste 26 Oeste 0 -- -- 75
2019-05-29 05:00:00 11.1 12 Noroeste 22 Noroeste 0 -- -- 62
2019-05-29 04:00:00 10.8 9 Norte 17 Noroeste 0 -- -- 67
2019-05-29 03:00:00 10.7 6 Noroeste 11 Noroeste 0 -- -- 68
2019-05-29 02:00:00 10.7 6 Noroeste 14 Noroeste 0 -- -- 68
2019-05-29 01:00:00 11 6 Noroeste 17 Noroeste 0 -- -- 64
2019-05-29 00:00:00 11.2 12 Noroeste 25 Noroeste 0 -- -- 61
2019-05-28 23:00:00 11.2 9 Noroeste 31 Noroeste 0 -- -- 62
2019-05-28 22:00:00 12 14 Noroeste 34 Noroeste 0 -- -- 59
2019-05-28 21:00:00 12.8 14 Norte 32 Norte 0 -- -- 55
2019-05-28 20:00:00 13.7 17 Norte 34 Noroeste 0 -- -- 48
2019-05-28 19:00:00 14.2 19 Norte 42 Norte 0 -- -- 46
2019-05-28 18:00:00 14.7 17 Norte 37 Noroeste 0 -- -- 46
2019-05-28 17:00:00 13.6 18 Noroeste 38 Noroeste 0 -- -- 63
2019-05-28 16:00:00 15 21 Norte 37 Norte 0 -- -- 52
2019-05-28 15:00:00 15.9 20 Noroeste 39 Norte 0 -- -- 47
2019-05-28 14:00:00 16.9 23 Noroeste 44 Noroeste 0 -- -- 39
2019-05-28 13:00:00 14.7 21 Noroeste 39 Noroeste 0 -- -- 51
2019-05-28 12:00:00 14 22 Noroeste 34 Noroeste 0 -- -- 56
2019-05-28 11:00:00 14 14 Norte 26 Noroeste 0 -- -- 54
2019-05-28 10:00:00 13.2 14 Noroeste 29 Noroeste 0 -- -- 56
2019-05-28 09:00:00 12.3 16 Noroeste 30 Noroeste 0 -- -- 58
2019-05-28 08:00:00 11.2 16 Noroeste 27 Noroeste 0 -- -- 61
2019-05-28 07:00:00 10 13 Noroeste 27 Noroeste 0 -- -- 64
2019-05-28 06:00:00 9.7 13 Noroeste 23 Noroeste 0 -- -- 66
2019-05-28 05:00:00 10.1 10 Noroeste 27 Noroeste 0 -- -- 65
2019-05-28 04:00:00 10.7 19 Noroeste 29 Noroeste 0 -- -- 60
2019-05-28 03:00:00 11.1 14 Noroeste 31 Norte 0 -- -- 59
2019-05-28 02:00:00 11.6 16 Noroeste 27 Norte 0 -- -- 56
2019-05-28 01:00:00 11.7 9 Norte 24 Noroeste 0 -- -- 64
2019-05-28 00:00:00 12.5 12 Noroeste 22 Noroeste 0 -- -- 63